Hovedside
METAR-TAF:

METAR-TAF

Lufthavner :

Miri, Malaysia

breddegrad: 04-20N, lengdegrad: 113-59E, høyde over havet: 17 m

Gjeldene værobservasjon

Denne rapporten ble laget for 1 time og 2 minutter siden, klokken 20:00 UTC
Vind 2 kt fra skiftende retning
Temperatur 26°C
Luftfuktighet 100%
Trykk 1008 hPa
Sikt 10 km eller mer
Spredte skyer i en høyde av 1600 ft

METAR: WBGR 242000Z VRB02KT 9999 SCT016 26/26 Q1008

Tid: 05:02 (21:02 UTC)

Varsel

Denne rapporten ble laget for 4 timer og 2 minutter siden, klokken 17:00 UTC
Varsel gyldig fra 24. klokken 18 UTC til 25. klokken 18 UTC
Vind 3 kt fra skiftende retning
Sikt 10 km eller mer
Få skyer i en høyde av 1600 ft

TAF: WBGR 241700Z 2418/2518 VRB03KT 9999 FEW016

Værobservasjoner og værvarsel for over 4000 flyplasser (METAR- og TAF-rapporter).

Tilgjengelige stasjoner er representert av de røde og gule prikkene på kartet.

Hold musepekeren over prikken for å se navnet på stasjonen.

Klikk så for å se værobservasjoner og -varsler.

For å forandre kartet kan du klikke på den grønne knappen med svart kryss for å zoome inn, på den grønne knappen med strek for å zoome ut, eller på de grønne pilene for å se tilstøtende kart.


METAR-TAF: